createdAt,value
2018-09-28T00:02:13.649Z,95951.94
2018-09-28T00:04:40.294Z,95952.95
2018-09-28T00:07:06.933Z,95945.99
2018-09-28T00:09:33.603Z,95942.58
2018-09-28T00:12:00.385Z,95936.13
2018-09-28T00:14:27.038Z,95938.02
2018-09-28T00:16:53.689Z,95933.09
2018-09-28T00:19:20.342Z,95930.06
2018-09-28T00:21:47.006Z,95928.02
2018-09-28T00:24:13.701Z,95930.70
2018-09-28T00:26:40.316Z,95923.75
2018-09-28T00:29:06.973Z,95926.65
2018-09-28T00:31:33.694Z,95924.39
2018-09-28T00:34:00.347Z,95921.71
2018-09-28T00:36:26.998Z,95916.67
2018-09-28T00:38:53.652Z,95907.33
2018-09-28T00:41:20.297Z,95906.83
2018-09-28T00:43:46.948Z,95900.34
2018-09-28T00:46:13.607Z,95896.94
2018-09-28T00:48:43.228Z,95892.14
2018-09-28T00:51:09.885Z,95891.40
2018-09-28T00:53:36.605Z,95885.30
2018-09-28T00:56:03.289Z,95875.58
2018-09-28T00:58:29.933Z,95873.05
2018-09-28T01:00:56.687Z,95869.99
2018-09-28T01:03:23.342Z,95870.64
2018-09-28T01:05:49.983Z,95868.38
2018-09-28T01:08:21.326Z,95871.02
2018-09-28T01:10:46.342Z,95876.34
2018-09-28T01:13:12.987Z,95870.52
2018-09-28T01:15:39.655Z,95870.39
2018-09-28T01:18:06.280Z,95866.71
2018-09-28T01:20:32.919Z,95866.99
2018-09-28T01:22:59.559Z,95876.86
2018-09-28T01:25:26.343Z,95876.09
2018-09-28T01:27:55.630Z,95870.53
2018-09-28T01:30:22.273Z,95876.50
2018-09-28T01:32:48.924Z,95876.50
2018-09-28T01:35:16.988Z,95878.14
2018-09-28T01:37:42.299Z,95872.31
2018-09-28T01:40:08.960Z,95867.63
2018-09-28T01:42:35.682Z,95864.22
2018-09-28T01:45:02.388Z,95865.48
2018-09-28T01:47:29.036Z,95865.86
2018-09-28T01:49:55.691Z,95866.77
2018-09-28T01:52:22.426Z,95865.62
2018-09-28T01:54:52.007Z,95848.92
2018-09-28T01:57:18.645Z,95847.28
2018-09-28T01:59:48.253Z,95845.14
2018-09-28T02:02:14.919Z,95847.28
2018-09-28T02:04:42.821Z,95847.28
2018-09-28T02:07:08.266Z,95849.59
2018-09-28T02:09:34.906Z,95851.83
2018-09-28T02:12:01.604Z,95849.94
2018-09-28T02:14:28.342Z,95855.78
2018-09-28T02:16:55.023Z,95860.82
2018-09-28T02:19:21.724Z,95862.47
2018-09-28T02:21:48.414Z,95856.89
2018-09-28T02:24:15.359Z,95855.16
2018-09-28T02:26:45.173Z,95853.12
2018-09-28T02:29:11.831Z,95855.77
2018-09-28T02:31:38.572Z,95847.44
2018-09-28T02:34:05.177Z,95849.73
2018-09-28T02:36:31.834Z,95853.02
2018-09-28T02:38:58.574Z,95842.53
2018-09-28T02:41:25.265Z,95838.61
2018-09-28T02:43:51.989Z,95833.08
2018-09-28T02:46:18.646Z,95830.41
2018-09-28T02:48:45.297Z,95827.13
2018-09-28T02:51:11.948Z,95825.48
2018-09-28T02:53:38.621Z,95832.80
2018-09-28T02:56:05.289Z,95835.30
2018-09-28T02:58:32.120Z,95837.73
2018-09-28T03:01:01.035Z,95840.89
2018-09-28T03:03:27.671Z,95837.21
2018-09-28T03:05:54.322Z,95833.28
2018-09-28T03:08:21.048Z,95831.13
2018-09-28T03:10:47.667Z,95837.97
2018-09-28T03:13:14.343Z,95838.98
2018-09-28T03:15:42.396Z,95839.66
2018-09-28T03:18:07.607Z,95839.15
2018-09-28T03:20:34.270Z,95833.84
2018-09-28T03:23:02.647Z,95835.85
2018-09-28T03:25:27.623Z,95842.06
2018-09-28T03:27:54.258Z,95846.03
2018-09-28T03:30:21.018Z,95842.46
2018-09-28T03:32:47.708Z,95844.09
2018-09-28T03:35:14.432Z,95845.59
2018-09-28T03:37:43.071Z,95838.32
2018-09-28T03:40:07.792Z,95826.13
2018-09-28T03:42:34.511Z,95834.96
2018-09-28T03:45:01.123Z,95833.30
2018-09-28T03:47:27.771Z,95826.33
2018-09-28T03:49:54.465Z,95821.77
2018-09-28T03:52:21.161Z,95814.28
2018-09-28T03:54:47.874Z,95812.62
2018-09-28T03:57:14.518Z,95809.84
2018-09-28T03:59:41.294Z,95807.78
2018-09-28T04:02:07.913Z,95803.47
2018-09-28T04:04:37.577Z,95802.77
2018-09-28T04:07:04.261Z,95801.20
2018-09-28T04:09:30.921Z,95790.71
2018-09-28T04:11:57.662Z,95791.85
2018-09-28T04:14:25.680Z,95782.11
2018-09-28T04:16:50.949Z,95788.41
2018-09-28T04:19:17.630Z,95777.80
2018-09-28T04:21:44.311Z,95772.52
2018-09-28T04:24:10.992Z,95767.15
2018-09-28T04:26:37.683Z,95780.27
2018-09-28T04:29:05.733Z,95778.00
2018-09-28T04:31:30.979Z,95768.16
2018-09-28T04:33:57.719Z,95762.84
2018-09-28T04:36:24.418Z,95761.58
2018-09-28T04:38:51.040Z,95768.77
2018-09-28T04:41:19.070Z,95759.38
2018-09-28T04:43:44.405Z,95756.06
2018-09-28T04:46:11.053Z,95761.73
2018-09-28T04:48:39.528Z,95762.73
2018-09-28T04:51:06.275Z,95767.01
2018-09-28T04:53:32.968Z,95760.78
2018-09-28T04:55:59.676Z,95752.98
2018-09-28T04:58:26.319Z,95758.75
2018-09-28T05:00:54.302Z,95760.89
2018-09-28T05:03:19.628Z,95754.77
2018-09-28T05:05:46.280Z,95752.14
2018-09-28T05:08:12.943Z,95757.20
2018-09-28T05:10:39.626Z,95750.84
2018-09-28T05:13:06.341Z,95755.43
2018-09-28T05:15:32.929Z,95752.36
2018-09-28T05:17:59.627Z,95755.23
2018-09-28T05:20:26.313Z,95757.63
2018-09-28T05:22:52.989Z,95759.88
2018-09-28T05:25:19.784Z,95754.79
2018-09-28T05:27:46.408Z,95758.30
2018-09-28T05:30:13.063Z,95757.72
2018-09-28T05:32:41.285Z,95761.55
2018-09-28T05:35:06.425Z,95759.05
2018-09-28T05:37:33.067Z,95755.86
2018-09-28T05:39:59.773Z,95758.45
2018-09-28T05:42:26.441Z,95765.58
2018-09-28T05:44:53.202Z,95766.09
2018-09-28T05:47:19.887Z,95764.20
2018-09-28T05:49:46.583Z,95772.05
2018-09-28T05:52:13.232Z,95764.63
2018-09-28T05:54:39.885Z,95763.30
2018-09-28T05:57:06.589Z,95771.17
2018-09-28T05:59:33.224Z,95770.82
2018-09-28T06:01:59.872Z,95766.20
2018-09-28T06:04:26.829Z,95774.25
2018-09-28T06:06:53.525Z,95776.29
2018-09-28T06:09:20.254Z,95764.45
2018-09-28T06:11:46.907Z,95761.67
2018-09-28T06:14:13.680Z,95768.02
2018-09-28T06:16:40.336Z,95763.59
2018-09-28T06:19:10.033Z,95763.22
2018-09-28T06:21:36.707Z,95765.96
2018-09-28T06:24:03.343Z,95760.16
2018-09-28T06:26:30.118Z,95758.66
2018-09-28T06:28:56.781Z,95760.38
2018-09-28T06:31:24.857Z,95755.09
2018-09-28T06:33:52.704Z,95751.54
2018-09-28T06:36:19.424Z,95742.97
2018-09-28T06:38:46.487Z,95749.13
2018-09-28T06:41:13.146Z,95740.06
2018-09-28T06:43:39.889Z,95731.80
2018-09-28T06:46:07.574Z,95728.52
2018-09-28T06:48:34.178Z,95726.72
2018-09-28T06:51:00.925Z,95733.16
2018-09-28T06:53:30.797Z,95730.31
2018-09-28T06:55:56.231Z,95729.55
2018-09-28T06:58:23.036Z,95737.44
2018-09-28T07:00:49.729Z,95738.44
2018-09-28T07:03:16.502Z,95735.22
2018-09-28T07:05:43.169Z,95740.44
2018-09-28T07:08:09.993Z,95734.30
2018-09-28T07:10:36.662Z,95734.41
2018-09-28T07:13:03.335Z,95728.77
2018-09-28T07:15:30.002Z,95726.61
2018-09-28T07:17:56.766Z,95728.83
2018-09-28T07:20:23.424Z,95723.62
2018-09-28T07:22:50.466Z,95726.20
2018-09-28T07:25:17.122Z,95721.14
2018-09-28T07:27:43.735Z,95732.87
2018-09-28T07:30:10.454Z,95726.20
2018-09-28T07:32:37.149Z,95726.80
2018-09-28T07:35:03.787Z,95729.64
2018-09-28T07:37:30.645Z,95725.89
2018-09-28T07:39:57.298Z,95713.75
2018-09-28T07:42:24.137Z,95718.39
2018-09-28T07:44:50.916Z,95708.55
2018-09-28T07:47:17.604Z,95708.73
2018-09-28T07:49:44.461Z,95704.09
2018-09-28T07:52:11.229Z,95697.43
2018-09-28T07:54:37.896Z,95695.83
2018-09-28T07:57:04.552Z,95693.47
2018-09-28T07:59:31.218Z,95692.53
2018-09-28T08:01:57.945Z,95684.25
2018-09-28T08:04:24.635Z,95678.84
2018-09-28T08:06:51.287Z,95679.53
2018-09-28T08:09:22.940Z,95677.14
2018-09-28T08:11:48.249Z,95683.47
2018-09-28T08:14:14.942Z,95680.55
2018-09-28T08:16:41.545Z,95681.45
2018-09-28T08:19:08.210Z,95679.21
2018-09-28T08:21:34.847Z,95675.86
2018-09-28T08:24:01.591Z,95673.41
2018-09-28T08:26:29.624Z,95673.23
2018-09-28T08:28:57.734Z,95670.33
2018-09-28T08:31:24.397Z,95666.57
2018-09-28T08:33:51.112Z,95661.88
2018-09-28T08:36:18.871Z,95664.41
2018-09-28T08:38:45.525Z,95656.45
2018-09-28T08:41:12.154Z,95665.84
2018-09-28T08:43:38.909Z,95655.86
2018-09-28T08:46:05.507Z,95662.16
2018-09-28T08:48:32.153Z,95652.59
2018-09-28T08:50:59.776Z,95645.09
2018-09-28T08:53:26.497Z,95641.55
2018-09-28T08:55:53.287Z,95648.72
2018-09-28T08:58:19.975Z,95647.89
2018-09-28T09:00:46.745Z,95648.77
2018-09-28T09:03:13.400Z,95637.34
2018-09-28T09:05:40.250Z,95632.13
2018-09-28T09:08:07.026Z,95634.09
2018-09-28T09:10:33.717Z,95626.52
2018-09-28T09:13:00.450Z,95612.86
2018-09-28T09:15:27.090Z,95616.53
2018-09-28T09:17:53.875Z,95612.44
2018-09-28T09:20:21.926Z,95620.49
2018-09-28T09:22:47.572Z,95600.12
2018-09-28T09:25:14.282Z,95597.52
2018-09-28T09:27:41.031Z,95598.39
2018-09-28T09:30:07.821Z,95582.33
2018-09-28T09:32:34.535Z,95590.19
2018-09-28T09:35:01.250Z,95577.09
2018-09-28T09:37:27.926Z,95575.45
2018-09-28T09:39:54.656Z,95574.31
2018-09-28T09:42:22.864Z,95571.98
2018-09-28T09:44:48.079Z,95558.56
2018-09-28T09:47:14.809Z,95563.16
2018-09-28T09:49:41.575Z,95558.18
2018-09-28T09:52:08.190Z,95551.91
2018-09-28T09:54:34.930Z,95548.73
2018-09-28T09:57:01.921Z,95534.70
2018-09-28T09:59:30.852Z,95538.38
2018-09-28T10:01:55.314Z,95529.27
2018-09-28T10:04:21.968Z,95536.69
2018-09-28T10:06:48.725Z,95529.55
2018-09-28T10:09:15.309Z,95524.30
2018-09-28T10:11:42.112Z,95512.63
2018-09-28T10:14:08.774Z,95504.57
2018-09-28T10:16:35.550Z,95498.59
2018-09-28T10:19:02.226Z,95506.29
2018-09-28T10:21:28.952Z,95503.70
2018-09-28T10:23:55.671Z,95497.03
2018-09-28T10:26:22.627Z,95496.32
2018-09-28T10:28:49.303Z,95482.80
2018-09-28T10:31:15.957Z,95488.94
2018-09-28T10:33:42.752Z,95481.86
2018-09-28T10:36:09.464Z,95471.31
2018-09-28T10:38:36.246Z,95460.46
2018-09-28T10:41:02.965Z,95457.69
2018-09-28T10:43:29.596Z,95457.66
2018-09-28T10:45:56.325Z,95448.97
2018-09-28T10:48:23.034Z,95443.85
2018-09-28T10:50:49.739Z,95435.91
2018-09-28T10:53:16.443Z,95433.77
2018-09-28T10:55:43.129Z,95429.86
2018-09-28T10:58:09.895Z,95418.69
2018-09-28T11:00:36.562Z,95411.21
2018-09-28T11:03:03.304Z,95408.74
2018-09-28T11:05:29.992Z,95405.75
2018-09-28T11:07:56.632Z,95400.97
2018-09-28T11:10:23.486Z,95392.73
2018-09-28T11:12:50.028Z,95389.83
2018-09-28T11:15:16.918Z,95385.94
2018-09-28T11:17:43.441Z,95379.97
2018-09-28T11:20:10.272Z,95372.70
2018-09-28T11:22:36.957Z,95366.86
2018-09-28T11:25:07.888Z,95362.88
2018-09-28T11:27:32.586Z,95362.41
2018-09-28T11:29:59.331Z,95359.02
2018-09-28T11:32:29.019Z,95352.25
2018-09-28T11:34:55.697Z,95352.66
2018-09-28T11:37:22.482Z,95342.38
2018-09-28T11:39:49.240Z,95337.27
2018-09-28T11:42:15.993Z,95342.95
2018-09-28T11:44:42.666Z,95340.14
2018-09-28T11:47:09.361Z,95336.33
2018-09-28T11:49:36.114Z,95333.16
2018-09-28T11:52:02.883Z,95330.05
2018-09-28T11:54:29.447Z,95321.83
2018-09-28T11:56:56.113Z,95313.83
2018-09-28T11:59:22.812Z,95316.05
2018-09-28T12:01:49.604Z,95313.92
2018-09-28T12:04:16.260Z,95308.59
2018-09-28T12:06:42.993Z,95314.20
2018-09-28T12:09:09.686Z,95310.38
2018-09-28T12:11:36.491Z,95303.44
2018-09-28T12:14:03.167Z,95307.61
2018-09-28T12:16:29.858Z,95299.97
2018-09-28T12:18:58.661Z,95289.17
2018-09-28T12:21:23.263Z,95295.53
2018-09-28T12:23:49.960Z,95295.12
2018-09-28T12:26:16.597Z,95288.23
2018-09-28T12:28:43.714Z,95288.39
2018-09-28T12:31:10.419Z,95285.62
2018-09-28T12:33:37.133Z,95285.58
2018-09-28T12:36:03.796Z,95274.42
2018-09-28T12:38:30.462Z,95280.55
2018-09-28T12:40:57.197Z,95276.17
2018-09-28T12:43:23.843Z,95264.33
2018-09-28T12:45:50.483Z,95265.31
2018-09-28T12:48:17.160Z,95264.44
2018-09-28T12:50:43.822Z,95253.77
2018-09-28T12:53:10.591Z,95251.63
2018-09-28T12:55:40.609Z,95250.56
2018-09-28T12:58:07.303Z,95252.53
2018-09-28T13:00:34.288Z,95248.94
2018-09-28T13:03:01.036Z,95248.50
2018-09-28T13:05:27.771Z,95249.08
2018-09-28T13:07:54.521Z,95245.33
2018-09-28T13:10:21.373Z,95245.53
2018-09-28T13:12:48.123Z,95239.49
2018-09-28T13:15:14.932Z,95236.84
2018-09-28T13:17:45.829Z,95238.13
2018-09-28T13:20:12.453Z,95238.44
2018-09-28T13:22:39.167Z,95227.40
2018-09-28T13:25:05.822Z,95227.02
2018-09-28T13:27:32.528Z,95223.02
2018-09-28T13:29:59.591Z,95220.83
2018-09-28T13:32:26.431Z,95221.28
2018-09-28T13:34:53.030Z,95225.89
2018-09-28T13:37:19.681Z,95223.59
2018-09-28T13:39:46.467Z,95218.48
2018-09-28T13:42:13.214Z,95209.63
2018-09-28T13:44:39.840Z,95211.36
2018-09-28T13:47:06.471Z,95205.63
2018-09-28T13:49:33.132Z,95207.84
2018-09-28T13:52:00.422Z,95201.39
2018-09-28T13:54:30.376Z,95199.99
2018-09-28T13:56:57.005Z,95195.20
2018-09-28T13:59:23.664Z,95196.45
2018-09-28T14:01:50.379Z,95191.69
2018-09-28T14:04:17.081Z,95190.26
2018-09-28T14:06:45.099Z,95189.92
2018-09-28T14:09:10.349Z,95192.59
2018-09-28T14:11:37.095Z,95185.01
2018-09-28T14:14:05.953Z,95182.89
2018-09-28T14:16:30.433Z,95187.37
2018-09-28T14:18:57.040Z,95182.63
2018-09-28T14:21:23.698Z,95179.38
2018-09-28T14:23:50.349Z,95176.70
2018-09-28T14:26:18.564Z,95175.27
2018-09-28T14:28:43.683Z,95183.00
2018-09-28T14:31:10.279Z,95171.78
2018-09-28T14:33:36.946Z,95177.79
2018-09-28T14:36:09.066Z,95175.48
2018-09-28T14:38:33.857Z,95174.58
2018-09-28T14:41:00.469Z,95175.18
2018-09-28T14:43:27.206Z,95164.34
2018-09-28T14:45:53.877Z,95165.55
2018-09-28T14:48:22.584Z,95158.30
2018-09-28T14:50:47.322Z,95165.08
2018-09-28T14:53:13.947Z,95160.63
2018-09-28T14:55:40.575Z,95159.77
2018-09-28T14:58:07.280Z,95161.75
2018-09-28T15:00:35.011Z,95161.91
2018-09-28T15:03:00.574Z,95162.09
2018-09-28T15:05:34.309Z,95160.73
2018-09-28T15:08:00.966Z,95161.75
2018-09-28T15:10:27.676Z,95156.84
2018-09-28T15:12:54.253Z,95158.37
2018-09-28T15:15:20.989Z,95154.41
2018-09-28T15:17:47.574Z,95160.92
2018-09-28T15:20:14.307Z,95157.52
2018-09-28T15:22:40.946Z,95147.28
2018-09-28T15:25:08.889Z,95156.33
2018-09-28T15:27:34.309Z,95150.78
2018-09-28T15:30:01.921Z,95153.00
2018-09-28T15:32:28.598Z,95148.05
2018-09-28T15:34:55.292Z,95149.45
2018-09-28T15:37:21.942Z,95141.39
2018-09-28T15:39:48.588Z,95142.09
2018-09-28T15:42:15.307Z,95146.40
2018-09-28T15:44:45.018Z,95141.08
2018-09-28T15:47:11.800Z,95146.81
2018-09-28T15:49:38.456Z,95149.28
2018-09-28T15:52:08.002Z,95148.27
2018-09-28T15:54:34.642Z,95148.81
2018-09-28T15:57:01.294Z,95148.59
2018-09-28T15:59:27.964Z,95150.55
2018-09-28T16:01:54.672Z,95153.92
2018-09-28T16:04:21.314Z,95153.80
2018-09-28T16:06:47.960Z,95149.45
2018-09-28T16:09:14.673Z,95148.73
2018-09-28T16:11:41.324Z,95148.56
2018-09-28T16:14:07.972Z,95151.50
2018-09-28T16:16:34.647Z,95160.94
2018-09-28T16:19:01.289Z,95150.72
2018-09-28T16:21:27.929Z,95154.03
2018-09-28T16:23:54.575Z,95144.01
2018-09-28T16:26:24.021Z,95151.41
2018-09-28T16:28:52.388Z,95141.69
2018-09-28T16:31:17.473Z,95139.89
2018-09-28T16:33:44.122Z,95144.97
2018-09-28T16:36:10.846Z,95141.23
2018-09-28T16:38:37.419Z,95141.61
2018-09-28T16:41:04.124Z,95144.48
2018-09-28T16:43:30.785Z,95137.25
2018-09-28T16:45:57.429Z,95138.06
2018-09-28T16:48:24.104Z,95132.64
2018-09-28T16:50:50.750Z,95133.33
2018-09-28T16:53:17.553Z,95141.11
2018-09-28T16:55:44.246Z,95137.86
2018-09-28T16:58:10.892Z,95136.20
2018-09-28T17:00:37.601Z,95136.91
2018-09-28T17:03:04.244Z,95137.80
2018-09-28T17:05:30.931Z,95140.39
2018-09-28T17:07:57.575Z,95136.84
2018-09-28T17:10:24.207Z,95136.15
2018-09-28T17:12:50.868Z,95131.73
2018-09-28T17:15:17.497Z,95143.14
2018-09-28T17:17:44.158Z,95145.55
2018-09-28T17:20:10.803Z,95148.77
2018-09-28T17:22:37.460Z,95146.91
2018-09-28T17:25:04.100Z,95149.84
2018-09-28T17:27:30.749Z,95148.88
2018-09-28T17:29:59.392Z,95144.84
2018-09-28T17:32:24.092Z,95149.72
2018-09-28T17:34:50.739Z,95151.00
2018-09-28T17:37:17.388Z,95150.73
2018-09-28T17:39:44.029Z,95154.84
2018-09-28T17:42:10.698Z,95153.58
2018-09-28T17:44:37.343Z,95159.08
2018-09-28T17:47:03.997Z,95159.25
2018-09-28T17:49:32.063Z,95159.66
2018-09-28T17:51:57.286Z,95166.88
2018-09-28T17:54:23.983Z,95164.27
2018-09-28T17:56:53.538Z,95167.16
2018-09-28T17:59:20.238Z,95171.75
2018-09-28T18:01:46.879Z,95175.83
2018-09-28T18:04:13.614Z,95170.03
2018-09-28T18:06:40.279Z,95178.50
2018-09-28T18:09:08.018Z,95168.37
2018-09-28T18:11:38.685Z,95170.72
2018-09-28T18:14:03.278Z,95171.64
2018-09-28T18:16:29.893Z,95168.48
2018-09-28T18:18:56.553Z,95176.34
2018-09-28T18:21:23.294Z,95179.38
2018-09-28T18:23:49.916Z,95176.13
2018-09-28T18:26:16.668Z,95173.11
2018-09-28T18:28:44.484Z,95173.74
2018-09-28T18:31:09.975Z,95165.77
2018-09-28T18:33:36.690Z,95173.03
2018-09-28T18:36:03.322Z,95167.97
2018-09-28T18:38:30.025Z,95171.91
2018-09-28T18:40:56.687Z,95175.75
2018-09-28T18:43:26.159Z,95176.02
2018-09-28T18:45:52.861Z,95170.23
2018-09-28T18:48:19.572Z,95177.57
2018-09-28T18:50:47.563Z,95168.96
2018-09-28T18:53:12.877Z,95168.39
2018-09-28T18:55:39.534Z,95163.96
2018-09-28T18:58:06.207Z,95169.29
2018-09-28T19:00:32.883Z,95177.90
2018-09-28T19:03:00.622Z,95174.29
2018-09-28T19:05:28.639Z,95184.16
2018-09-28T19:07:54.051Z,95189.60
2018-09-28T19:10:20.699Z,95189.10
2018-09-28T19:12:47.454Z,95190.41
2018-09-28T19:15:16.534Z,95192.81
2018-09-28T19:17:43.223Z,95192.05
2018-09-28T19:20:09.872Z,95191.72
2018-09-28T19:22:36.513Z,95198.39
2018-09-28T19:25:03.188Z,95199.20
2018-09-28T19:27:29.859Z,95193.04
2018-09-28T19:29:56.598Z,95196.30
2018-09-28T19:32:24.627Z,95192.42
2018-09-28T19:34:49.936Z,95197.61
2018-09-28T19:37:19.770Z,95197.52
2018-09-28T19:39:46.537Z,95190.86
2018-09-28T19:42:13.291Z,95192.77
2018-09-28T19:44:42.845Z,95188.77
2018-09-28T19:47:09.484Z,95181.31
2018-09-28T19:49:36.304Z,95182.82
2018-09-28T19:52:02.942Z,95184.98
2018-09-28T19:54:29.616Z,95190.84
2018-09-28T19:56:56.307Z,95184.52
2018-09-28T19:59:22.961Z,95178.33
2018-09-28T20:01:49.604Z,95168.59
2018-09-28T20:04:16.370Z,95165.59
2018-09-28T20:06:43.008Z,95174.66
2018-09-28T20:09:11.070Z,95184.10
2018-09-28T20:11:36.347Z,95176.86
2018-09-28T20:14:02.994Z,95174.20
2018-09-28T20:16:29.663Z,95165.64
2018-09-28T20:18:56.441Z,95173.28
2018-09-28T20:21:23.187Z,95177.45
2018-09-28T20:23:49.782Z,95182.26
2018-09-28T20:26:16.425Z,95188.34
2018-09-28T20:28:43.095Z,95184.84
2018-09-28T20:31:09.749Z,95179.06
2018-09-28T20:33:36.434Z,95180.55
2018-09-28T20:36:03.196Z,95191.33
2018-09-28T20:38:29.870Z,95179.06
2018-09-28T20:40:59.766Z,95179.11
2018-09-28T20:43:27.626Z,95178.48
2018-09-28T20:45:53.167Z,95179.50
2018-09-28T20:48:19.882Z,95176.72
2018-09-28T20:50:49.423Z,95176.98
2018-09-28T20:53:16.085Z,95173.34
2018-09-28T20:55:42.735Z,95167.91
2018-09-28T20:58:09.380Z,95166.95
2018-09-28T21:00:36.018Z,95170.48
2018-09-28T21:03:02.810Z,95171.75
2018-09-28T21:05:29.547Z,95161.17
2018-09-28T21:07:56.242Z,95154.73
2018-09-28T21:10:22.894Z,95165.98
2018-09-28T21:12:49.535Z,95160.04
2018-09-28T21:15:16.653Z,95162.44
2018-09-28T21:17:45.169Z,95164.72
2018-09-28T21:20:10.093Z,95164.72
2018-09-28T21:22:36.885Z,95160.59
2018-09-28T21:25:03.522Z,95157.17
2018-09-28T21:27:30.181Z,95162.86
2018-09-28T21:29:56.878Z,95165.14
2018-09-28T21:32:23.577Z,95162.62
2018-09-28T21:34:50.214Z,95157.48
2018-09-28T21:37:16.897Z,95161.28
2018-09-28T21:39:43.592Z,95168.01
2018-09-28T21:42:10.230Z,95163.19
2018-09-28T21:44:36.867Z,95169.28
2018-09-28T21:47:03.504Z,95170.05
2018-09-28T21:49:30.156Z,95172.16
2018-09-28T21:51:56.794Z,95171.45
2018-09-28T21:54:24.954Z,95173.84
2018-09-28T21:56:50.325Z,95165.12
2018-09-28T21:59:17.102Z,95171.35
2018-09-28T22:01:43.754Z,95166.17
2018-09-28T22:04:10.484Z,95164.41
2018-09-28T22:06:37.174Z,95163.14
2018-09-28T22:09:04.038Z,95159.53
2018-09-28T22:11:30.775Z,95152.70
2018-09-28T22:13:57.494Z,95151.19
2018-09-28T22:16:24.193Z,95145.63
2018-09-28T22:18:50.835Z,95139.84
2018-09-28T22:21:17.737Z,95140.86
2018-09-28T22:23:44.362Z,95145.41
2018-09-28T22:26:11.064Z,95145.78
2018-09-28T22:28:37.693Z,95143.19
2018-09-28T22:33:34.246Z,95140.52
2018-09-28T22:36:00.886Z,95136.35
2018-09-28T22:38:28.165Z,95140.28
2018-09-28T22:40:54.906Z,95141.97
2018-09-28T22:43:22.921Z,95145.09
2018-09-28T22:45:48.228Z,95145.76
2018-09-28T22:48:14.923Z,95143.73
2018-09-28T22:50:42.896Z,95139.43
2018-09-28T22:53:09.614Z,95139.82
2018-09-28T22:55:34.983Z,95135.81
2018-09-28T22:58:01.679Z,95136.98
2018-09-28T23:00:30.488Z,95132.91
2018-09-28T23:02:54.964Z,95134.55
2018-09-28T23:05:21.604Z,95136.23
2018-09-28T23:07:49.994Z,95137.34
2018-09-28T23:10:15.017Z,95137.50
2018-09-28T23:12:41.658Z,95137.34
2018-09-28T23:15:09.771Z,95129.03
2018-09-28T23:17:35.065Z,95135.02
2018-09-28T23:20:01.673Z,95126.55
2018-09-28T23:22:28.355Z,95132.74
2018-09-28T23:24:56.877Z,95134.63
2018-09-28T23:27:21.772Z,95129.59
2018-09-28T23:29:51.751Z,95130.63
2018-09-28T23:32:18.464Z,95125.95
2018-09-28T23:34:46.314Z,95119.80
2018-09-28T23:37:11.914Z,95119.42
2018-09-28T23:39:38.565Z,95120.53
2018-09-28T23:42:05.350Z,95118.92
2018-09-28T23:44:31.996Z,95116.91
2018-09-28T23:46:58.763Z,95120.20
2018-09-28T23:49:25.467Z,95122.25
2018-09-28T23:51:52.116Z,95119.98
2018-09-28T23:54:18.883Z,95115.17
2018-09-28T23:56:45.575Z,95116.82
2018-09-28T23:59:12.364Z,95118.09
